Time,TemperatureF,DewpointF,PressureIn,WindDirection,WindDirectionDegrees,WindSpeedMPH,WindSpeedGustMPH,Humidity,HourlyPrecipIn,Conditions,Clouds,dailyrainin,SoftwareType,DateUTC
2013-07-02 00:00:00,84.0,53.0,-100.00,North,-999,-999.0,-999.0,34,-99.99,,,0.00,,2013-07-02 06:00:00,
2013-07-02 00:43:00,84.0,-99.9,-100.00,North,-999,-999.0,-999.0,-999,-99.99,,,0.00,,2013-07-02 06:43:00,
2013-07-02 00:53:00,84.0,53.0,-100.00,North,-999,-999.0,-999.0,34,-99.99,,,0.00,,2013-07-02 06:53:00,
2013-07-02 03:00:00,78.0,54.0,-100.00,North,-999,-999.0,-999.0,44,-99.99,,,0.00,,2013-07-02 09:00:00,
2013-07-02 04:00:00,79.0,53.0,-100.00,North,-999,-999.0,-999.0,41,-99.99,,,0.00,,2013-07-02 10:00:00,
2013-07-02 04:52:00,79.0,53.0,-100.00,North,-999,-999.0,-999.0,41,-99.99,,,0.00,,2013-07-02 10:52:00,
2013-07-02 05:00:00,76.0,50.0,-100.00,North,-999,-999.0,-999.0,40,-99.99,,,-99.99,,2013-07-02 11:00:00,
2013-07-02 05:52:00,76.0,50.0,-100.00,North,-999,-999.0,-999.0,40,-99.99,,,-99.99,,2013-07-02 11:52:00,
2013-07-02 06:00:00,75.0,50.0,-100.00,North,-999,-999.0,-999.0,41,-99.99,,,0.00,,2013-07-02 12:00:00,
2013-07-02 06:52:00,75.0,50.0,-100.00,North,-999,-999.0,-999.0,41,-99.99,,,0.00,,2013-07-02 12:52:00,
2013-07-02 07:00:00,78.0,53.0,-100.00,North,-999,-999.0,-999.0,41,-99.99,,,0.00,,2013-07-02 13:00:00,
2013-07-02 08:00:00,85.0,53.0,-100.00,North,-999,-999.0,-999.0,34,-99.99,,,0.00,,2013-07-02 14:00:00,
2013-07-02 09:00:00,87.0,49.0,-100.00,North,-999,-999.0,-999.0,27,-99.99,,,0.00,,2013-07-02 15:00:00,
2013-07-02 10:00:00,90.0,49.0,-100.00,North,-999,-999.0,-999.0,24,-99.99,,,0.00,,2013-07-02 16:00:00,
2013-07-02 11:00:00,96.0,48.0,-100.00,North,-999,-999.0,-999.0,20,-99.99,,,0.00,,2013-07-02 17:00:00,
2013-07-02 12:00:00,99.0,45.0,-100.00,North,-999,-999.0,-999.0,16,-99.99,,,0.00,,2013-07-02 18:00:00,
2013-07-02 13:00:00,100.0,44.0,-100.00,North,-999,-999.0,-999.0,15,-99.99,,,0.00,,2013-07-02 19:00:00,
2013-07-02 14:00:00,102.0,44.0,-100.00,North,-999,-999.0,-999.0,14,-99.99,,,0.00,,2013-07-02 20:00:00,
2013-07-02 15:00:00,102.0,42.0,-100.00,North,-999,-999.0,-999.0,13,-99.99,,,0.00,,2013-07-02 21:00:00,
2013-07-02 15:52:00,102.0,42.0,-100.00,North,-999,-999.0,-999.0,13,-99.99,,,0.00,,2013-07-02 21:52:00,
2013-07-02 16:00:00,104.0,43.0,-100.00,North,-999,-999.0,-999.0,13,-99.99,,,0.00,,2013-07-02 22:00:00,
2013-07-02 16:43:00,103.0,-99.9,-100.00,North,-999,-999.0,-999.0,-999,-99.99,,,0.00,,2013-07-02 22:43:00,
2013-07-02 16:53:00,104.0,43.0,-100.00,North,-999,-999.0,-999.0,13,-99.99,,,0.00,,2013-07-02 22:53:00,
2013-07-02 17:00:00,103.0,42.0,-100.00,North,-999,-999.0,-999.0,13,-99.99,,,0.00,,2013-07-02 23:00:00,
2013-07-02 17:44:00,103.0,-99.9,-100.00,North,-999,-999.0,-999.0,-999,-99.99,,,0.00,,2013-07-02 23:44:00,
2013-07-02 17:52:00,103.0,42.0,-100.00,North,-999,-999.0,-999.0,13,-99.99,,,0.00,,2013-07-02 23:52:00,
2013-07-02 18:00:00,103.0,43.0,-100.00,North,-999,-999.0,-999.0,13,-99.99,,,-99.99,,2013-07-03 00:00:00,
2013-07-02 18:52:00,103.0,-99.9,-100.00,North,-999,-999.0,-999.0,-999,-99.99,,,0.00,,2013-07-03 00:52:00,
2013-07-02 19:00:00,101.0,43.0,-100.00,North,-999,-999.0,-999.0,14,-99.99,,,0.00,,2013-07-03 01:00:00,
2013-07-02 19:59:00,101.0,43.0,-100.00,North,-999,-999.0,-999.0,14,-99.99,,,0.00,,2013-07-03 01:59:00,
2013-07-02 20:00:00,96.0,43.0,-100.00,North,-999,-999.0,-999.0,16,-99.99,,,0.00,,2013-07-03 02:00:00,
2013-07-02 20:58:00,96.0,43.0,-100.00,North,-999,-999.0,-999.0,16,-99.99,,,0.00,,2013-07-03 02:58:00,
2013-07-02 21:58:00,91.0,47.0,-100.00,North,-999,-999.0,-999.0,22,-99.99,,,0.00,,2013-07-03 03:58:00,
2013-07-02 22:00:00,84.0,50.0,-100.00,North,-999,-999.0,-999.0,31,-99.99,,,0.00,,2013-07-03 04:00:00,
2013-07-02 22:52:00,84.0,50.0,-100.00,North,-999,-999.0,-999.0,31,-99.99,,,0.00,,2013-07-03 04:52:00,
2013-07-02 23:00:00,83.0,54.0,-100.00,North,-999,-999.0,-999.0,38,-99.99,,,0.00,,2013-07-03 05:00:00,